Henderson Field Sand Island UM
ICAO: PMDY
IATA:
Category: Medium
Scheduled Services:

Elevation: 13 ft
TransAlt. 18000 ft.

Airport Communications:
AWOS 3:118.325
CTAF:122.9
RDO:126.2

PMDY Zoom In..

If you have problems with the map follow the link
https://www.worldairports.se/pages/airport.php?
ICAO=PMDY

Runways:

(A) RW 06 length 7800 ft width 150 ft
---- / hdg 59

(B) RW 24 length 7800 ft width 150 ft
---- / hdg 239

Location; PMDY
Day. 21 / Time. 10.56 Zulu
* Altimeter: 30.08
* Temperature: 19° c. 66.2°f.
* Wind from: 320° Speed 05 kn.
Dewpoint: 13° c.
Visibility: 10 Statute Miles.
Clouds: Overcast 3500 ft.

PMDY 211056Z AUTO 32005KT 10SM OVC035 19/13 A3008 RMK AO2 SLP186 T01890133 402390189


Wind From 320°
Speed 05 kn.

 
 
jpsmedia worldairports.se 2020   terms of use